sensor_id;sensor_type;location;lat;lon;timestamp;pressure;altitude;pressure_sealevel;temperature;humidity
19457;BME280;9867;48.094;11.478;2023-02-18T00:01:08;96094.13;;;11.06;100.00
19457;BME280;9867;48.094;11.478;2023-02-18T00:03:35;96084.84;;;11.05;100.00
19457;BME280;9867;48.094;11.478;2023-02-18T00:06:10;96086.16;;;11.01;100.00
19457;BME280;9867;48.094;11.478;2023-02-18T00:08:37;96082.78;;;11.00;100.00
19457;BME280;9867;48.094;11.478;2023-02-18T00:11:04;96085.34;;;11.00;100.00
19457;BME280;9867;48.094;11.478;2023-02-18T00:13:30;96077.81;;;10.99;100.00
19457;BME280;9867;48.094;11.478;2023-02-18T00:16:00;96065.63;;;11.01;100.00
19457;BME280;9867;48.094;11.478;2023-02-18T00:18:26;96067.22;;;11.02;100.00
19457;BME280;9867;48.094;11.478;2023-02-18T00:20:52;96083.13;;;10.97;100.00
19457;BME280;9867;48.094;11.478;2023-02-18T00:23:19;96061.50;;;10.91;100.00
19457;BME280;9867;48.094;11.478;2023-02-18T00:25:46;96053.38;;;10.88;100.00
19457;BME280;9867;48.094;11.478;2023-02-18T00:28:12;96052.94;;;10.84;100.00
19457;BME280;9867;48.094;11.478;2023-02-18T00:30:39;96045.25;;;10.84;100.00
19457;BME280;9867;48.094;11.478;2023-02-18T00:33:06;96045.31;;;10.76;100.00
19457;BME280;9867;48.094;11.478;2023-02-18T00:35:32;96045.19;;;10.70;100.00
19457;BME280;9867;48.094;11.478;2023-02-18T00:37:59;96033.09;;;10.78;100.00
19457;BME280;9867;48.094;11.478;2023-02-18T00:40:25;96045.19;;;10.70;100.00
19457;BME280;9867;48.094;11.478;2023-02-18T00:42:52;96041.94;;;10.76;100.00
19457;BME280;9867;48.094;11.478;2023-02-18T00:45:19;96057.69;;;10.73;100.00
19457;BME280;9867;48.094;11.478;2023-02-18T00:47:46;96050.16;;;10.71;100.00
19457;BME280;9867;48.094;11.478;2023-02-18T00:50:12;96040.59;;;10.65;100.00
19457;BME280;9867;48.094;11.478;2023-02-18T00:52:38;96048.81;;;10.61;100.00
19457;BME280;9867;48.094;11.478;2023-02-18T00:55:06;96049.72;;;10.68;100.00
19457;BME280;9867;48.094;11.478;2023-02-18T00:57:33;96045.53;;;10.67;100.00
19457;BME280;9867;48.094;11.478;2023-02-18T01:00:00;96043.31;;;10.64;100.00
19457;BME280;9867;48.094;11.478;2023-02-18T01:02:26;96049.38;;;10.71;100.00
19457;BME280;9867;48.094;11.478;2023-02-18T01:04:53;96043.25;;;10.72;100.00
19457;BME280;9867;48.094;11.478;2023-02-18T01:07:19;96045.66;;;10.73;100.00
19457;BME280;9867;48.094;11.478;2023-02-18T01:09:45;96039.03;;;10.79;100.00
19457;BME280;9867;48.094;11.478;2023-02-18T01:12:12;96047.25;;;10.74;100.00
19457;BME280;9867;48.094;11.478;2023-02-18T01:14:41;96036.63;;;10.77;100.00
19457;BME280;9867;48.094;11.478;2023-02-18T01:17:09;96031.69;;;10.76;100.00
19457;BME280;9867;48.094;11.478;2023-02-18T01:19:35;96041.31;;;10.74;100.00
19457;BME280;9867;48.094;11.478;2023-02-18T01:22:02;96032.19;;;10.71;100.00
19457;BME280;9867;48.094;11.478;2023-02-18T01:24:28;96018.47;;;10.64;100.00
19457;BME280;9867;48.094;11.478;2023-02-18T01:26:55;96026.34;;;10.63;100.00
19457;BME280;9867;48.094;11.478;2023-02-18T01:29:21;96020.59;;;10.61;100.00
19457;BME280;9867;48.094;11.478;2023-02-18T01:31:47;96019.63;;;10.62;100.00
19457;BME280;9867;48.094;11.478;2023-02-18T01:34:15;96016.00;;;10.56;100.00
19457;BME280;9867;48.094;11.478;2023-02-18T01:36:41;96016.09;;;10.63;100.00
19457;BME280;9867;48.094;11.478;2023-02-18T01:39:07;95999.41;;;10.44;100.00
19457;BME280;9867;48.094;11.478;2023-02-18T01:41:34;96009.50;;;10.45;100.00
19457;BME280;9867;48.094;11.478;2023-02-18T01:44:11;96000.38;;;10.43;100.00
19457;BME280;9867;48.094;11.478;2023-02-18T01:46:38;96002.59;;;10.46;100.00
19457;BME280;9867;48.094;11.478;2023-02-18T01:49:05;96020.94;;;10.57;100.00
19457;BME280;9867;48.094;11.478;2023-02-18T01:51:36;96029.00;;;10.54;100.00
19457;BME280;9867;48.094;11.478;2023-02-18T01:54:07;96016.63;;;10.58;100.00
19457;BME280;9867;48.094;11.478;2023-02-18T01:56:36;96008.41;;;10.63;100.00
19457;BME280;9867;48.094;11.478;2023-02-18T01:59:07;96007.84;;;10.67;100.00
19457;BME280;9867;48.094;11.478;2023-02-18T02:01:35;95999.34;;;10.67;100.00
19457;BME280;9867;48.094;11.478;2023-02-18T02:04:01;95998.72;;;10.65;100.00
19457;BME280;9867;48.094;11.478;2023-02-18T02:06:30;95998.56;;;10.66;100.00
19457;BME280;9867;48.094;11.478;2023-02-18T02:09:00;95996.28;;;10.71;100.00
19457;BME280;9867;48.094;11.478;2023-02-18T02:11:44;96005.91;;;10.69;100.00
19457;BME280;9867;48.094;11.478;2023-02-18T02:14:26;95991.41;;;10.76;100.00
19457;BME280;9867;48.094;11.478;2023-02-18T02:17:03;95992.56;;;10.74;100.00
19457;BME280;9867;48.094;11.478;2023-02-18T02:19:59;95992.72;;;10.72;100.00
19457;BME280;9867;48.094;11.478;2023-02-18T02:22:56;95985.66;;;10.74;100.00
19457;BME280;9867;48.094;11.478;2023-02-18T02:25:50;95980.19;;;10.77;100.00
19457;BME280;9867;48.094;11.478;2023-02-18T02:28:42;95985.41;;;10.84;100.00
19457;BME280;9867;48.094;11.478;2023-02-18T02:31:41;95983.63;;;10.84;100.00
19457;BME280;9867;48.094;11.478;2023-02-18T02:34:28;95977.09;;;10.82;100.00
19457;BME280;9867;48.094;11.478;2023-02-18T02:37:06;95978.84;;;10.81;100.00
19457;BME280;9867;48.094;11.478;2023-02-18T02:39:39;95991.25;;;10.78;100.00
19457;BME280;9867;48.094;11.478;2023-02-18T02:42:17;95989.56;;;10.85;100.00
19457;BME280;9867;48.094;11.478;2023-02-18T02:44:50;95983.97;;;10.81;100.00
19457;BME280;9867;48.094;11.478;2023-02-18T02:47:26;95967.25;;;10.85;100.00
19457;BME280;9867;48.094;11.478;2023-02-18T02:50:01;95956.81;;;10.72;100.00
19457;BME280;9867;48.094;11.478;2023-02-18T02:52:31;95961.50;;;10.83;100.00
19457;BME280;9867;48.094;11.478;2023-02-18T02:54:59;95953.72;;;10.77;100.00
19457;BME280;9867;48.094;11.478;2023-02-18T02:57:44;95953.72;;;10.77;100.00
19457;BME280;9867;48.094;11.478;2023-02-18T03:00:17;95956.63;;;10.74;100.00
19457;BME280;9867;48.094;11.478;2023-02-18T03:03:16;95934.31;;;10.74;100.00
19457;BME280;9867;48.094;11.478;2023-02-18T03:06:05;95950.78;;;10.80;100.00
19457;BME280;9867;48.094;11.478;2023-02-18T03:08:40;95951.84;;;10.71;100.00
19457;BME280;9867;48.094;11.478;2023-02-18T03:11:12;95960.16;;;10.73;100.00
19457;BME280;9867;48.094;11.478;2023-02-18T03:13:50;95956.69;;;10.66;100.00
19457;BME280;9867;48.094;11.478;2023-02-18T03:16:26;95944.25;;;10.63;100.00
19457;BME280;9867;48.094;11.478;2023-02-18T03:18:59;95937.31;;;10.63;100.00
19457;BME280;9867;48.094;11.478;2023-02-18T03:21:31;95957.25;;;10.76;100.00
19457;BME280;9867;48.094;11.478;2023-02-18T03:24:03;95952.22;;;10.82;100.00
19457;BME280;9867;48.094;11.478;2023-02-18T03:26:33;95950.34;;;10.76;100.00
19457;BME280;9867;48.094;11.478;2023-02-18T03:29:04;95971.31;;;10.80;100.00
19457;BME280;9867;48.094;11.478;2023-02-18T03:31:34;95953.19;;;10.81;100.00
19457;BME280;9867;48.094;11.478;2023-02-18T03:34:04;95933.63;;;10.80;100.00
19457;BME280;9867;48.094;11.478;2023-02-18T03:36:33;95951.25;;;10.83;100.00
19457;BME280;9867;48.094;11.478;2023-02-18T03:39:03;95950.28;;;10.84;100.00
19457;BME280;9867;48.094;11.478;2023-02-18T03:41:33;95949.28;;;10.85;100.00
19457;BME280;9867;48.094;11.478;2023-02-18T03:44:01;95940.78;;;10.85;100.00
19457;BME280;9867;48.094;11.478;2023-02-18T03:46:29;95939.19;;;10.84;100.00
19457;BME280;9867;48.094;11.478;2023-02-18T03:48:57;95943.53;;;10.69;100.00
19457;BME280;9867;48.094;11.478;2023-02-18T03:51:24;95945.91;;;10.70;100.00
19457;BME280;9867;48.094;11.478;2023-02-18T03:53:51;95951.22;;;10.69;100.00
19457;BME280;9867;48.094;11.478;2023-02-18T03:56:20;95941.50;;;10.79;100.00
19457;BME280;9867;48.094;11.478;2023-02-18T03:58:46;95945.56;;;10.73;100.00
19457;BME280;9867;48.094;11.478;2023-02-18T04:01:13;95946.81;;;10.63;100.00
19457;BME280;9867;48.094;11.478;2023-02-18T04:03:39;95939.19;;;10.69;100.00
19457;BME280;9867;48.094;11.478;2023-02-18T04:06:06;95954.75;;;10.68;100.00
19457;BME280;9867;48.094;11.478;2023-02-18T04:08:33;95950.94;;;10.64;100.00
19457;BME280;9867;48.094;11.478;2023-02-18T04:11:00;95953.34;;;10.65;100.00
19457;BME280;9867;48.094;11.478;2023-02-18T04:13:27;95944.25;;;10.63;100.00
19457;BME280;9867;48.094;11.478;2023-02-18T04:15:53;95948.59;;;10.62;100.00
19457;BME280;9867;48.094;11.478;2023-02-18T04:18:20;95947.00;;;10.61;100.00
19457;BME280;9867;48.094;11.478;2023-02-18T04:20:46;95966.53;;;10.62;100.00
19457;BME280;9867;48.094;11.478;2023-02-18T04:23:13;95945.41;;;10.60;100.00
19457;BME280;9867;48.094;11.478;2023-02-18T04:25:40;95947.34;;;10.58;100.00
19457;BME280;9867;48.094;11.478;2023-02-18T04:28:07;95939.00;;;10.56;100.00
19457;BME280;9867;48.094;11.478;2023-02-18T04:30:36;95944.16;;;10.56;100.00
19457;BME280;9867;48.094;11.478;2023-02-18T04:33:02;95935.66;;;10.55;100.00
19457;BME280;9867;48.094;11.478;2023-02-18T04:35:29;95945.63;;;10.50;100.00
19457;BME280;9867;48.094;11.478;2023-02-18T04:37:55;95946.88;;;10.54;100.00
19457;BME280;9867;48.094;11.478;2023-02-18T04:40:22;95949.97;;;10.50;100.00
19457;BME280;9867;48.094;11.478;2023-02-18T04:42:50;95950.44;;;10.53;100.00
19457;BME280;9867;48.094;11.478;2023-02-18T04:45:17;95972.44;;;10.48;100.00
19457;BME280;9867;48.094;11.478;2023-02-18T04:47:43;95964.56;;;10.49;100.00
19457;BME280;9867;48.094;11.478;2023-02-18T04:50:10;95957.66;;;10.50;100.00
19457;BME280;9867;48.094;11.478;2023-02-18T04:52:36;95955.28;;;10.48;100.00
19457;BME280;9867;48.094;11.478;2023-02-18T04:55:03;95948.72;;;10.46;100.00
19457;BME280;9867;48.094;11.478;2023-02-18T04:57:30;95960.41;;;10.48;100.00
19457;BME280;9867;48.094;11.478;2023-02-18T04:59:56;95987.66;;;10.49;100.00
19457;BME280;9867;48.094;11.478;2023-02-18T05:02:23;95960.41;;;10.48;100.00
19457;BME280;9867;48.094;11.478;2023-02-18T05:04:50;95958.75;;;10.55;100.00
19457;BME280;9867;48.094;11.478;2023-02-18T05:07:16;95957.78;;;10.56;100.00
19457;BME280;9867;48.094;11.478;2023-02-18T05:09:43;95966.44;;;10.55;100.00
19457;BME280;9867;48.094;11.478;2023-02-18T05:12:09;95972.81;;;10.59;100.00
19457;BME280;9867;48.094;11.478;2023-02-18T05:14:36;95941.41;;;10.57;100.00
19457;BME280;9867;48.094;11.478;2023-02-18T05:17:02;95935.47;;;10.57;100.00
19457;BME280;9867;48.094;11.478;2023-02-18T05:19:29;95941.75;;;10.54;100.00
19457;BME280;9867;48.094;11.478;2023-02-18T05:21:55;95953.16;;;10.52;100.00
19457;BME280;9867;48.094;11.478;2023-02-18T05:24:22;95948.31;;;10.57;100.00
19457;BME280;9867;48.094;11.478;2023-02-18T05:26:48;95945.13;;;10.55;100.00
19457;BME280;9867;48.094;11.478;2023-02-18T05:29:15;95936.09;;;10.59;100.00
19457;BME280;9867;48.094;11.478;2023-02-18T05:31:41;95945.91;;;10.55;100.00
19457;BME280;9867;48.094;11.478;2023-02-18T05:34:08;95929.81;;;10.62;100.00
19457;BME280;9867;48.094;11.478;2023-02-18T05:36:35;95927.44;;;10.60;100.00
19457;BME280;9867;48.094;11.478;2023-02-18T05:39:02;95931.59;;;10.61;100.00
19457;BME280;9867;48.094;11.478;2023-02-18T05:41:28;95937.75;;;10.67;100.00
19457;BME280;9867;48.094;11.478;2023-02-18T05:43:54;95937.69;;;10.60;100.00
19457;BME280;9867;48.094;11.478;2023-02-18T05:46:39;95948.81;;;10.67;100.00
19457;BME280;9867;48.094;11.478;2023-02-18T05:49:06;95941.69;;;10.63;100.00
19457;BME280;9867;48.094;11.478;2023-02-18T05:51:32;95934.41;;;10.66;100.00
19457;BME280;9867;48.094;11.478;2023-02-18T05:53:59;95928.66;;;10.64;100.00
19457;BME280;9867;48.094;11.478;2023-02-18T05:56:26;95937.41;;;10.70;100.00
19457;BME280;9867;48.094;11.478;2023-02-18T05:58:52;95944.03;;;10.64;100.00
19457;BME280;9867;48.094;11.478;2023-02-18T06:01:18;95933.59;;;10.66;100.00
19457;BME280;9867;48.094;11.478;2023-02-18T06:03:45;95932.91;;;10.72;100.00
19457;BME280;9867;48.094;11.478;2023-02-18T06:06:11;95944.50;;;10.68;100.00
19457;BME280;9867;48.094;11.478;2023-02-18T06:08:38;95936.28;;;10.72;100.00
19457;BME280;9867;48.094;11.478;2023-02-18T06:11:05;95947.41;;;10.65;100.00
19457;BME280;9867;48.094;11.478;2023-02-18T06:13:31;95955.91;;;10.65;100.00
19457;BME280;9867;48.094;11.478;2023-02-18T06:15:57;95963.59;;;10.65;100.00
19457;BME280;9867;48.094;11.478;2023-02-18T06:18:24;95954.75;;;10.68;100.00
19457;BME280;9867;48.094;11.478;2023-02-18T06:20:51;95938.13;;;10.64;100.00
19457;BME280;9867;48.094;11.478;2023-02-18T06:23:17;95925.75;;;10.52;100.00
19457;BME280;9867;48.094;11.478;2023-02-18T06:25:44;95963.88;;;10.70;100.00
19457;BME280;9867;48.094;11.478;2023-02-18T06:28:11;95950.59;;;10.67;100.00
19457;BME280;9867;48.094;11.478;2023-02-18T06:30:37;95959.09;;;10.67;100.00
19457;BME280;9867;48.094;11.478;2023-02-18T06:33:04;95964.78;;;10.63;100.00
19457;BME280;9867;48.094;11.478;2023-02-18T06:35:30;95981.03;;;10.70;100.00
19457;BME280;9867;48.094;11.478;2023-02-18T06:37:57;95978.81;;;10.67;100.00
19457;BME280;9867;48.094;11.478;2023-02-18T06:40:23;95951.22;;;10.69;100.00
19457;BME280;9867;48.094;11.478;2023-02-18T06:42:50;95953.16;;;10.67;100.00
19457;BME280;9867;48.094;11.478;2023-02-18T06:45:17;95955.72;;;11.11;100.00
19457;BME280;9867;48.094;11.478;2023-02-18T06:47:43;95967.97;;;11.09;100.00
19457;BME280;9867;48.094;11.478;2023-02-18T06:50:10;95957.31;;;11.12;100.00
19457;BME280;9867;48.094;11.478;2023-02-18T06:52:36;95956.78;;;11.16;100.00
19457;BME280;9867;48.094;11.478;2023-02-18T06:55:03;95961.91;;;11.16;100.00
19457;BME280;9867;48.094;11.478;2023-02-18T06:57:30;95959.50;;;11.15;100.00
19457;BME280;9867;48.094;11.478;2023-02-18T06:59:56;95949.59;;;11.12;100.00
19457;BME280;9867;48.094;11.478;2023-02-18T07:02:23;95960.94;;;11.17;100.00
19457;BME280;9867;48.094;11.478;2023-02-18T07:04:50;95958.91;;;10.98;100.00
19457;BME280;9867;48.094;11.478;2023-02-18T07:07:16;95959.00;;;10.90;100.00
19457;BME280;9867;48.094;11.478;2023-02-18T07:09:43;95953.47;;;10.86;100.00
19457;BME280;9867;48.094;11.478;2023-02-18T07:12:09;95963.63;;;10.80;100.00
19457;BME280;9867;48.094;11.478;2023-02-18T07:14:35;95944.50;;;10.82;100.00
19457;BME280;9867;48.094;11.478;2023-02-18T07:17:02;95982.56;;;10.79;100.00
19457;BME280;9867;48.094;11.478;2023-02-18T07:19:29;95945.03;;;10.78;100.00
19457;BME280;9867;48.094;11.478;2023-02-18T07:21:55;95955.22;;;10.71;100.00
19457;BME280;9867;48.094;11.478;2023-02-18T07:24:22;95954.22;;;10.72;100.00
19457;BME280;9867;48.094;11.478;2023-02-18T07:26:49;95957.16;;;10.69;100.00
19457;BME280;9867;48.094;11.478;2023-02-18T07:29:17;95953.59;;;10.70;100.00
19457;BME280;9867;48.094;11.478;2023-02-18T07:31:44;95966.78;;;10.67;100.00
19457;BME280;9867;48.094;11.478;2023-02-18T07:34:10;95961.84;;;10.66;100.00
19457;BME280;9867;48.094;11.478;2023-02-18T07:36:37;95967.50;;;10.61;100.00
19457;BME280;9867;48.094;11.478;2023-02-18T07:39:04;95973.34;;;10.55;100.00
19457;BME280;9867;48.094;11.478;2023-02-18T07:41:30;95977.94;;;10.59;100.00
19457;BME280;9867;48.094;11.478;2023-02-18T07:43:57;95948.75;;;10.61;100.00
19457;BME280;9867;48.094;11.478;2023-02-18T07:46:26;95963.97;;;10.62;100.00
19457;BME280;9867;48.094;11.478;2023-02-18T07:48:53;95967.94;;;10.65;100.00
19457;BME280;9867;48.094;11.478;2023-02-18T07:51:19;95960.41;;;10.63;100.00
19457;BME280;9867;48.094;11.478;2023-02-18T07:53:46;95954.41;;;10.71;100.00
19457;BME280;9867;48.094;11.478;2023-02-18T07:56:13;95943.53;;;10.69;100.00
19457;BME280;9867;48.094;11.478;2023-02-18T07:58:40;95957.41;;;10.74;100.00
19457;BME280;9867;48.094;11.478;2023-02-18T08:01:08;95954.69;;;10.76;100.00
19457;BME280;9867;48.094;11.478;2023-02-18T08:03:34;95955.31;;;10.78;100.00
19457;BME280;9867;48.094;11.478;2023-02-18T08:06:03;95945.22;;;10.76;100.00
19457;BME280;9867;48.094;11.478;2023-02-18T08:08:31;95945.84;;;10.78;100.00
19457;BME280;9867;48.094;11.478;2023-02-18T08:11:00;95979.03;;;10.80;100.00
19457;BME280;9867;48.094;11.478;2023-02-18T08:13:39;95940.63;;;10.86;100.00
19457;BME280;9867;48.094;11.478;2023-02-18T08:16:05;95927.97;;;10.85;100.00
19457;BME280;9867;48.094;11.478;2023-02-18T08:18:32;95931.13;;;10.87;100.00
19457;BME280;9867;48.094;11.478;2023-02-18T08:20:58;95944.94;;;11.01;100.00
19457;BME280;9867;48.094;11.478;2023-02-18T08:23:25;95949.81;;;10.96;100.00
19457;BME280;9867;48.094;11.478;2023-02-18T08:25:52;95920.50;;;11.05;100.00
19457;BME280;9867;48.094;11.478;2023-02-18T08:28:21;95938.53;;;11.11;100.00
19457;BME280;9867;48.094;11.478;2023-02-18T08:30:49;95919.56;;;11.12;100.00
19457;BME280;9867;48.094;11.478;2023-02-18T08:33:16;95897.88;;;11.15;100.00
19457;BME280;9867;48.094;11.478;2023-02-18T08:35:44;95914.34;;;11.20;100.00
19457;BME280;9867;48.094;11.478;2023-02-18T08:38:11;95899.56;;;11.22;100.00
19457;BME280;9867;48.094;11.478;2023-02-18T08:40:37;95910.63;;;11.23;100.00
19457;BME280;9867;48.094;11.478;2023-02-18T08:43:05;95898.75;;;11.22;100.00
19457;BME280;9867;48.094;11.478;2023-02-18T08:45:33;95895.03;;;11.24;100.00
19457;BME280;9867;48.094;11.478;2023-02-18T08:48:01;95886.25;;;11.34;100.00
19457;BME280;9867;48.094;11.478;2023-02-18T08:50:45;95884.16;;;11.44;100.00
19457;BME280;9867;48.094;11.478;2023-02-18T08:53:12;95895.34;;;11.36;100.00
19457;BME280;9867;48.094;11.478;2023-02-18T08:55:39;95899.50;;;11.37;100.00
19457;BME280;9867;48.094;11.478;2023-02-18T08:58:06;95902.56;;;11.26;100.00
19457;BME280;9867;48.094;11.478;2023-02-18T09:00:34;95892.94;;;11.35;100.00
19457;BME280;9867;48.094;11.478;2023-02-18T09:03:00;95914.69;;;11.32;100.00
19457;BME280;9867;48.094;11.478;2023-02-18T09:05:27;95902.19;;;11.29;100.00
19457;BME280;9867;48.094;11.478;2023-02-18T09:07:53;95917.97;;;11.26;100.00
19457;BME280;9867;48.094;11.478;2023-02-18T09:10:20;95904.22;;;11.34;100.00
19457;BME280;9867;48.094;11.478;2023-02-18T09:12:46;95891.56;;;11.32;100.00
19457;BME280;9867;48.094;11.478;2023-02-18T09:15:13;95890.78;;;11.32;100.00
19457;BME280;9867;48.094;11.478;2023-02-18T09:17:40;95890.00;;;11.52;100.00
19457;BME280;9867;48.094;11.478;2023-02-18T09:20:07;95887.72;;;11.64;100.00
19457;BME280;9867;48.094;11.478;2023-02-18T09:22:34;95884.03;;;11.52;100.00
19457;BME280;9867;48.094;11.478;2023-02-18T09:25:02;95893.72;;;11.71;100.00
19457;BME280;9867;48.094;11.478;2023-02-18T09:27:28;95885.06;;;11.57;100.00
19457;BME280;9867;48.094;11.478;2023-02-18T09:29:55;95897.56;;;11.60;100.00
19457;BME280;9867;48.094;11.478;2023-02-18T09:32:21;95883.38;;;11.65;100.00
19457;BME280;9867;48.094;11.478;2023-02-18T09:35:00;95915.06;;;11.72;100.00
19457;BME280;9867;48.094;11.478;2023-02-18T09:37:27;95903.19;;;11.71;100.00
19457;BME280;9867;48.094;11.478;2023-02-18T09:39:54;95917.22;;;11.89;100.00
19457;BME280;9867;48.094;11.478;2023-02-18T09:42:23;95923.72;;;11.85;100.00
19457;BME280;9867;48.094;11.478;2023-02-18T09:44:54;95874.13;;;11.91;100.00
19457;BME280;9867;48.094;11.478;2023-02-18T09:47:29;95903.94;;;11.86;100.00
19457;BME280;9867;48.094;11.478;2023-02-18T09:49:59;95887.16;;;11.90;100.00
19457;BME280;9867;48.094;11.478;2023-02-18T09:52:31;95863.34;;;12.03;100.00
19457;BME280;9867;48.094;11.478;2023-02-18T09:55:18;95830.91;;;12.02;100.00
19457;BME280;9867;48.094;11.478;2023-02-18T09:57:47;95839.09;;;12.18;100.00
19457;BME280;9867;48.094;11.478;2023-02-18T10:00:19;95831.31;;;12.40;100.00
19457;BME280;9867;48.094;11.478;2023-02-18T10:02:53;95837.44;;;12.39;100.00
19457;BME280;9867;48.094;11.478;2023-02-18T10:05:22;95832.41;;;12.24;100.00
19457;BME280;9867;48.094;11.478;2023-02-18T10:07:54;95825.84;;;12.56;100.00
19457;BME280;9867;48.094;11.478;2023-02-18T10:10:30;95867.84;;;12.63;100.00
19457;BME280;9867;48.094;11.478;2023-02-18T10:12:58;95824.53;;;12.73;100.00
19457;BME280;9867;48.094;11.478;2023-02-18T10:15:28;95830.63;;;12.66;100.00
19457;BME280;9867;48.094;11.478;2023-02-18T10:17:56;95819.38;;;12.73;100.00
19457;BME280;9867;48.094;11.478;2023-02-18T10:20:25;95816.03;;;12.79;100.00
19457;BME280;9867;48.094;11.478;2023-02-18T10:22:54;95818.94;;;12.63;100.00
19457;BME280;9867;48.094;11.478;2023-02-18T10:25:23;95814.97;;;12.60;100.00
19457;BME280;9867;48.094;11.478;2023-02-18T10:27:52;95800.75;;;12.78;100.00
19457;BME280;9867;48.094;11.478;2023-02-18T10:30:23;95803.16;;;12.79;100.00
19457;BME280;9867;48.094;11.478;2023-02-18T10:32:55;95828.66;;;13.15;100.00
19457;BME280;9867;48.094;11.478;2023-02-18T10:35:30;95791.56;;;13.23;100.00
19457;BME280;9867;48.094;11.478;2023-02-18T10:38:06;95795.97;;;13.22;100.00
19457;BME280;9867;48.094;11.478;2023-02-18T10:40:46;95812.53;;;12.93;100.00
19457;BME280;9867;48.094;11.478;2023-02-18T10:43:19;95800.31;;;13.15;100.00
19457;BME280;9867;48.094;11.478;2023-02-18T10:45:54;95791.53;;;13.10;100.00
19457;BME280;9867;48.094;11.478;2023-02-18T10:48:38;95778.94;;;13.21;100.00
19457;BME280;9867;48.094;11.478;2023-02-18T10:51:14;95783.47;;;13.19;100.00
19457;BME280;9867;48.094;11.478;2023-02-18T10:53:44;95806.47;;;13.27;100.00
19457;BME280;9867;48.094;11.478;2023-02-18T10:56:32;95763.66;;;13.33;100.00
19457;BME280;9867;48.094;11.478;2023-02-18T10:59:01;95764.84;;;13.30;100.00
19457;BME280;9867;48.094;11.478;2023-02-18T11:01:31;95766.81;;;13.15;100.00
19457;BME280;9867;48.094;11.478;2023-02-18T11:04:06;95754.50;;;13.11;100.00
19457;BME280;9867;48.094;11.478;2023-02-18T11:06:38;95740.63;;;13.12;100.00
19457;BME280;9867;48.094;11.478;2023-02-18T11:09:06;95749.19;;;13.32;100.00
19457;BME280;9867;48.094;11.478;2023-02-18T11:11:39;95739.66;;;13.32;100.00
19457;BME280;9867;48.094;11.478;2023-02-18T11:14:07;95741.66;;;13.44;100.00
19457;BME280;9867;48.094;11.478;2023-02-18T11:16:38;95723.19;;;13.67;100.00
19457;BME280;9867;48.094;11.478;2023-02-18T11:19:08;95734.28;;;13.80;100.00
19457;BME280;9867;48.094;11.478;2023-02-18T11:22:06;95742.03;;;13.60;100.00
19457;BME280;9867;48.094;11.478;2023-02-18T11:24:37;95710.09;;;13.48;100.00
19457;BME280;9867;48.094;11.478;2023-02-18T11:27:08;95726.56;;;13.54;100.00
19457;BME280;9867;48.094;11.478;2023-02-18T11:29:34;95727.16;;;13.56;100.00
19457;BME280;9867;48.094;11.478;2023-02-18T11:32:01;95710.91;;;13.49;100.00
19457;BME280;9867;48.094;11.478;2023-02-18T11:34:30;95714.03;;;13.90;100.00
19457;BME280;9867;48.094;11.478;2023-02-18T11:37:07;95719.53;;;14.07;100.00
19457;BME280;9867;48.094;11.478;2023-02-18T11:39:35;95711.00;;;14.00;100.00
19457;BME280;9867;48.094;11.478;2023-02-18T11:42:04;95695.72;;;14.05;100.00
19457;BME280;9867;48.094;11.478;2023-02-18T11:44:34;95727.06;;;14.02;100.00
19457;BME280;9867;48.094;11.478;2023-02-18T11:47:04;95703.63;;;14.17;100.00
19457;BME280;9867;48.094;11.478;2023-02-18T11:49:33;95732.38;;;14.20;100.00
19457;BME280;9867;48.094;11.478;2023-02-18T11:52:11;95709.69;;;14.36;100.00
19457;BME280;9867;48.094;11.478;2023-02-18T11:54:41;95717.81;;;14.46;100.00
19457;BME280;9867;48.094;11.478;2023-02-18T11:57:11;95720.97;;;14.48;100.00
19457;BME280;9867;48.094;11.478;2023-02-18T11:59:40;95721.03;;;14.28;100.00
19457;BME280;9867;48.094;11.478;2023-02-18T12:02:23;95696.34;;;14.45;100.00
19457;BME280;9867;48.094;11.478;2023-02-18T12:04:53;95686.25;;;14.75;100.00
19457;BME280;9867;48.094;11.478;2023-02-18T12:07:25;95687.38;;;14.54;100.00
19457;BME280;9867;48.094;11.478;2023-02-18T12:09:55;95728.09;;;14.59;100.00
19457;BME280;9867;48.094;11.478;2023-02-18T12:12:25;95698.91;;;14.52;100.00
19457;BME280;9867;48.094;11.478;2023-02-18T12:14:54;95694.78;;;14.38;100.00
19457;BME280;9867;48.094;11.478;2023-02-18T12:17:45;95649.69;;;14.47;100.00
19457;BME280;9867;48.094;11.478;2023-02-18T12:20:28;95666.44;;;14.69;100.00
19457;BME280;9867;48.094;11.478;2023-02-18T12:23:07;95675.09;;;14.81;100.00
19457;BME280;9867;48.094;11.478;2023-02-18T12:25:45;95645.06;;;14.55;100.00
19457;BME280;9867;48.094;11.478;2023-02-18T12:28:26;95663.31;;;14.60;100.00
19457;BME280;9867;48.094;11.478;2023-02-18T12:31:11;95666.19;;;14.39;100.00
19457;BME280;9867;48.094;11.478;2023-02-18T12:33:50;95659.63;;;14.43;100.00
19457;BME280;9867;48.094;11.478;2023-02-18T12:36:32;95647.91;;;14.79;100.00
19457;BME280;9867;48.094;11.478;2023-02-18T12:39:10;95637.91;;;14.57;100.00
19457;BME280;9867;48.094;11.478;2023-02-18T12:41:52;95634.22;;;14.40;100.00
19457;BME280;9867;48.094;11.478;2023-02-18T12:44:33;95632.84;;;14.69;100.00
19457;BME280;9867;48.094;11.478;2023-02-18T12:47:32;95632.72;;;14.64;100.00
19457;BME280;9867;48.094;11.478;2023-02-18T12:50:27;95679.91;;;14.40;100.00
19457;BME280;9867;48.094;11.478;2023-02-18T12:56:00;95622.53;;;14.31;100.00
19457;BME280;9867;48.094;11.478;2023-02-18T12:58:39;95636.44;;;14.30;100.00
19457;BME280;9867;48.094;11.478;2023-02-18T13:07:45;95642.81;;;14.65;100.00
19457;BME280;9867;48.094;11.478;2023-02-18T13:10:40;95636.63;;;14.35;100.00
19457;BME280;9867;48.094;11.478;2023-02-18T13:13:09;95641.63;;;14.30;100.00
19457;BME280;9867;48.094;11.478;2023-02-18T13:15:40;95632.09;;;14.24;100.00